createdAt,value
2022-10-20T00:02:01.690Z,92537.50
2022-10-20T00:04:34.447Z,92531.09
2022-10-20T00:07:06.726Z,92534.00
2022-10-20T00:09:39.181Z,92520.75
2022-10-20T00:12:12.110Z,92521.31
2022-10-20T00:14:44.434Z,92516.22
2022-10-20T00:17:16.730Z,92528.41
2022-10-20T00:19:49.256Z,92515.91
2022-10-20T00:22:21.589Z,92522.97
2022-10-20T00:24:53.895Z,92526.06
2022-10-20T00:27:26.857Z,92508.56
2022-10-20T00:29:59.194Z,92524.03
2022-10-20T00:32:31.494Z,92524.59
2022-10-20T00:35:04.334Z,92523.63
2022-10-20T00:37:36.639Z,92518.69
2022-10-20T00:40:09.981Z,92505.19
2022-10-20T00:42:44.942Z,92514.94
2022-10-20T00:45:19.298Z,92521.91
2022-10-20T00:47:55.436Z,92514.84
2022-10-20T00:50:31.150Z,92489.47
2022-10-20T00:53:04.294Z,92507.13
2022-10-20T00:55:42.216Z,92500.72
2022-10-20T00:58:15.490Z,92497.22
2022-10-20T01:00:50.627Z,92488.03
2022-10-20T01:03:27.601Z,92493.34
2022-10-20T01:06:00.094Z,92500.72
2022-10-20T01:08:32.493Z,92494.53
2022-10-20T01:11:17.630Z,92494.72
2022-10-20T01:14:13.095Z,92493.44
2022-10-20T01:16:57.853Z,92500.53
2022-10-20T01:20:07.091Z,92498.59
2022-10-20T01:23:07.373Z,92501.88
2022-10-20T01:25:55.261Z,92503.34
2022-10-20T01:28:36.804Z,92502.16
2022-10-20T01:31:16.811Z,92498.28
2022-10-20T01:33:58.207Z,92496.56
2022-10-20T01:36:36.803Z,92485.44
2022-10-20T01:39:15.530Z,92500.63
2022-10-20T01:41:53.103Z,92495.22
2022-10-20T01:44:29.411Z,92492.41
2022-10-20T01:47:03.025Z,92502.06
2022-10-20T01:49:35.626Z,92500.91
2022-10-20T01:52:10.259Z,92503.44
2022-10-20T01:54:42.559Z,92500.13
2022-10-20T01:57:33.431Z,92500.81
2022-10-20T02:00:08.695Z,92485.44
2022-10-20T02:03:13.523Z,92476.50
2022-10-20T02:05:54.470Z,92504.97
2022-10-20T02:08:34.185Z,92515.72
2022-10-20T02:11:09.787Z,92508.75
2022-10-20T02:13:42.815Z,92508.47
2022-10-20T02:16:20.126Z,92509.53
2022-10-20T02:18:52.770Z,92516.69
2022-10-20T02:21:25.356Z,92519.00
2022-10-20T02:24:03.074Z,92523.25
2022-10-20T02:26:38.404Z,92521.53
2022-10-20T02:29:13.915Z,92506.00
2022-10-20T02:31:47.426Z,92524.22
2022-10-20T02:34:19.728Z,92521.13
2022-10-20T02:36:55.336Z,92520.53
2022-10-20T02:39:27.651Z,92531.53
2022-10-20T02:41:59.952Z,92532.72
2022-10-20T02:44:32.414Z,92532.22
2022-10-20T02:47:05.369Z,92532.59
2022-10-20T02:49:37.682Z,92534.44
2022-10-20T02:52:09.943Z,92540.78
2022-10-20T02:54:42.279Z,92541.56
2022-10-20T02:57:14.557Z,92543.91
2022-10-20T02:59:46.839Z,92545.66
2022-10-20T03:02:19.872Z,92543.81
2022-10-20T03:04:52.185Z,92549.84
2022-10-20T03:07:24.487Z,92557.16
2022-10-20T03:09:56.795Z,92551.19
2022-10-20T03:12:31.572Z,92545.50
2022-10-20T03:15:05.255Z,92545.31
2022-10-20T03:17:38.536Z,92539.84
2022-10-20T03:20:11.474Z,92544.31
2022-10-20T03:22:43.784Z,92546.25
2022-10-20T03:25:16.054Z,92554.00
2022-10-20T03:27:48.348Z,92558.50
2022-10-20T03:30:20.664Z,92543.44
2022-10-20T03:32:55.201Z,92548.13
2022-10-20T03:35:27.544Z,92556.44
2022-10-20T03:37:59.823Z,92560.72
2022-10-20T03:40:32.096Z,92560.16
2022-10-20T03:43:04.459Z,92556.56
2022-10-20T03:45:36.778Z,92554.78
2022-10-20T03:48:11.448Z,92563.88
2022-10-20T03:50:43.725Z,92570.41
2022-10-20T03:53:16.089Z,92571.47
2022-10-20T03:55:48.372Z,92573.56
2022-10-20T03:58:20.697Z,92576.16
2022-10-20T04:00:53.844Z,92574.34
2022-10-20T04:03:26.815Z,92573.91
2022-10-20T04:05:59.132Z,92577.50
2022-10-20T04:08:31.576Z,92576.63
2022-10-20T04:11:04.269Z,92570.00
2022-10-20T04:13:36.634Z,92579.69
2022-10-20T04:16:08.907Z,92583.00
2022-10-20T04:18:41.900Z,92583.50
2022-10-20T04:21:14.381Z,92575.91
2022-10-20T04:23:46.722Z,92580.78
2022-10-20T04:26:19.037Z,92575.81
2022-10-20T04:28:51.374Z,92574.78
2022-10-20T04:31:23.683Z,92572.69
2022-10-20T04:33:56.662Z,92571.81
2022-10-20T04:36:28.943Z,92569.53
2022-10-20T04:39:01.360Z,92575.31
2022-10-20T04:41:34.155Z,92572.25
2022-10-20T04:44:06.523Z,92579.75
2022-10-20T04:46:38.825Z,92579.38
2022-10-20T04:49:11.846Z,92571.44
2022-10-20T04:51:44.171Z,92577.84
2022-10-20T04:54:16.509Z,92577.34
2022-10-20T04:56:48.863Z,92579.69
2022-10-20T04:59:21.238Z,92581.47
2022-10-20T05:01:53.584Z,92590.09
2022-10-20T05:04:26.842Z,92590.31
2022-10-20T05:06:59.101Z,92589.00
2022-10-20T05:09:32.274Z,92585.34
2022-10-20T05:12:04.728Z,92586.31
2022-10-20T05:14:37.244Z,92588.75
2022-10-20T05:17:10.115Z,92589.19
2022-10-20T05:19:43.289Z,92604.25
2022-10-20T05:22:15.607Z,92599.00
2022-10-20T05:24:47.966Z,92601.38
2022-10-20T05:27:20.275Z,92608.19
2022-10-20T05:29:52.574Z,92603.59
2022-10-20T05:32:24.914Z,92618.03
2022-10-20T05:34:57.879Z,92615.94
2022-10-20T05:37:30.174Z,92620.88
2022-10-20T05:40:03.146Z,92630.22
2022-10-20T05:42:35.581Z,92639.09
2022-10-20T05:45:09.255Z,92652.84
2022-10-20T05:47:42.042Z,92645.84
2022-10-20T05:50:15.135Z,92651.28
2022-10-20T05:52:47.435Z,92664.31
2022-10-20T05:55:19.852Z,92665.13
2022-10-20T05:57:52.242Z,92666.19
2022-10-20T06:00:30.226Z,92673.97
2022-10-20T06:03:02.549Z,92676.63
2022-10-20T06:05:35.642Z,92686.44
2022-10-20T06:08:07.950Z,92687.75
2022-10-20T06:10:40.243Z,92682.56
2022-10-20T06:13:12.551Z,92686.19
2022-10-20T06:15:46.885Z,92692.75
2022-10-20T06:18:19.199Z,92697.66
2022-10-20T06:21:00.614Z,92709.38
2022-10-20T06:23:33.662Z,92697.16
2022-10-20T06:26:08.099Z,92697.16
2022-10-20T06:28:41.134Z,92714.53
2022-10-20T06:31:15.268Z,92704.91
2022-10-20T06:33:48.467Z,92716.59
2022-10-20T06:36:22.231Z,92723.59
2022-10-20T06:38:55.523Z,92719.41
2022-10-20T06:41:28.317Z,92720.94
2022-10-20T06:44:00.659Z,92719.63
2022-10-20T06:46:35.464Z,92724.28
2022-10-20T06:49:08.169Z,92724.75
2022-10-20T06:51:41.270Z,92722.63
2022-10-20T06:54:13.608Z,92721.78
2022-10-20T06:56:45.874Z,92719.69
2022-10-20T06:59:18.172Z,92729.53
2022-10-20T07:01:50.608Z,92727.13
2022-10-20T07:04:23.066Z,92729.16
2022-10-20T07:06:56.029Z,92730.13
2022-10-20T07:09:28.411Z,92733.19
2022-10-20T07:12:01.951Z,92738.66
2022-10-20T07:14:36.683Z,92735.94
2022-10-20T07:17:09.006Z,92747.50
2022-10-20T07:19:41.330Z,92738.34
2022-10-20T07:22:14.333Z,92732.41
2022-10-20T07:24:46.644Z,92733.59
2022-10-20T07:27:18.942Z,92728.44
2022-10-20T07:29:51.265Z,92728.06
2022-10-20T07:32:23.652Z,92732.09
2022-10-20T07:34:55.936Z,92731.19
2022-10-20T07:37:29.020Z,92735.38
2022-10-20T07:40:01.319Z,92735.13
2022-10-20T07:42:33.797Z,92740.81
2022-10-20T07:45:07.707Z,92730.09
2022-10-20T07:47:42.153Z,92734.34
2022-10-20T07:50:15.801Z,92741.25
2022-10-20T07:52:51.689Z,92734.63
2022-10-20T07:58:10.802Z,92740.28
2022-10-20T08:00:43.136Z,92742.53
2022-10-20T08:03:15.402Z,92729.59
2022-10-20T08:05:47.699Z,92735.47
2022-10-20T08:08:20.834Z,92734.69
2022-10-20T08:10:53.207Z,92732.81
2022-10-20T08:13:26.033Z,92732.00
2022-10-20T08:21:28.946Z,92727.84
2022-10-20T08:24:02.199Z,92730.00
2022-10-20T08:26:34.626Z,92730.19
2022-10-20T08:29:06.905Z,92728.63
2022-10-20T08:31:39.321Z,92722.44
2022-10-20T08:34:11.738Z,92719.91
2022-10-20T08:36:44.272Z,92717.38
2022-10-20T08:39:17.215Z,92724.53
2022-10-20T08:42:09.011Z,92716.28
2022-10-20T08:44:45.624Z,92700.88
2022-10-20T08:47:29.173Z,92712.94
2022-10-20T08:50:09.131Z,92715.81
2022-10-20T08:52:43.336Z,92713.16
2022-10-20T08:55:24.573Z,92712.13
2022-10-20T08:58:02.384Z,92712.69
2022-10-20T09:00:37.803Z,92714.69
2022-10-20T09:03:15.388Z,92721.81
2022-10-20T09:05:52.459Z,92720.31
2022-10-20T09:08:29.458Z,92722.59
2022-10-20T09:11:04.847Z,92723.44
2022-10-20T09:13:37.330Z,92720.06
2022-10-20T09:16:23.233Z,92724.25
2022-10-20T09:19:16.405Z,92726.63
2022-10-20T09:21:53.129Z,92735.03
2022-10-20T09:24:29.537Z,92734.59
2022-10-20T09:27:20.109Z,92733.03
2022-10-20T09:29:52.419Z,92734.81
2022-10-20T09:32:48.641Z,92725.69
2022-10-20T09:35:25.083Z,92728.13
2022-10-20T09:38:04.247Z,92730.94
2022-10-20T09:40:44.242Z,92718.31
2022-10-20T09:43:18.223Z,92725.75
2022-10-20T09:45:54.507Z,92719.50
2022-10-20T09:48:30.474Z,92716.28
2022-10-20T09:51:05.883Z,92713.16
2022-10-20T09:53:49.215Z,92711.34
2022-10-20T09:56:30.150Z,92713.97
2022-10-20T09:59:07.626Z,92712.09
2022-10-20T10:01:53.610Z,92707.63
2022-10-20T10:04:32.471Z,92701.41
2022-10-20T10:07:26.171Z,92704.19
2022-10-20T10:10:05.415Z,92700.47
2022-10-20T10:12:40.588Z,92702.13
2022-10-20T10:15:26.961Z,92696.56
2022-10-20T10:18:00.147Z,92686.41
2022-10-20T10:20:36.487Z,92697.41
2022-10-20T10:23:19.191Z,92696.06
2022-10-20T10:25:52.567Z,92688.34
2022-10-20T10:28:37.395Z,92683.03
2022-10-20T10:31:22.652Z,92684.63
2022-10-20T10:34:02.227Z,92685.00
2022-10-20T10:36:35.539Z,92676.09
2022-10-20T10:39:13.301Z,92673.84
2022-10-20T10:42:00.572Z,92675.28
2022-10-20T10:44:44.834Z,92672.78
2022-10-20T10:47:33.325Z,92674.00
2022-10-20T10:50:26.968Z,92669.81
2022-10-20T10:53:10.739Z,92674.38
2022-10-20T10:55:53.511Z,92666.97
2022-10-20T10:58:36.718Z,92662.53
2022-10-20T11:01:30.249Z,92667.63
2022-10-20T11:04:29.140Z,92661.78
2022-10-20T11:07:08.780Z,92657.72
2022-10-20T11:09:52.604Z,92653.75
2022-10-20T11:12:41.790Z,92658.06
2022-10-20T11:15:29.217Z,92649.19
2022-10-20T11:18:30.186Z,92652.72
2022-10-20T11:21:20.615Z,92652.84
2022-10-20T11:24:12.990Z,92643.38
2022-10-20T11:26:49.781Z,92644.94
2022-10-20T11:29:31.003Z,92641.63
2022-10-20T11:32:11.557Z,92637.63
2022-10-20T11:34:52.363Z,92630.69
2022-10-20T11:37:28.170Z,92637.41
2022-10-20T11:40:14.098Z,92633.72
2022-10-20T11:42:51.952Z,92633.53
2022-10-20T11:45:42.028Z,92632.22
2022-10-20T11:48:19.560Z,92627.47
2022-10-20T11:51:17.118Z,92626.88
2022-10-20T11:54:07.084Z,92622.31
2022-10-20T11:57:03.542Z,92629.19
2022-10-20T12:00:13.489Z,92625.69
2022-10-20T12:03:30.277Z,92620.66
2022-10-20T12:06:36.773Z,92622.28
2022-10-20T12:09:42.142Z,92621.44
2022-10-20T12:12:19.530Z,92619.22
2022-10-20T12:14:57.479Z,92623.09
2022-10-20T12:17:33.066Z,92619.09
2022-10-20T12:20:59.041Z,92620.66
2022-10-20T12:24:02.991Z,92627.09
2022-10-20T12:27:26.960Z,92626.97
2022-10-20T12:30:02.658Z,92622.47
2022-10-20T12:33:03.635Z,92614.81
2022-10-20T12:36:02.040Z,92617.09
2022-10-20T12:38:34.445Z,92619.28
2022-10-20T12:41:09.110Z,92614.75
2022-10-20T12:43:50.828Z,92612.59
2022-10-20T12:46:30.731Z,92616.84
2022-10-20T12:49:08.101Z,92615.66
2022-10-20T12:51:50.222Z,92613.50
2022-10-20T12:54:26.693Z,92616.56
2022-10-20T12:57:02.074Z,92624.47
2022-10-20T12:59:39.771Z,92626.44
2022-10-20T13:02:50.359Z,92620.03
2022-10-20T13:05:49.582Z,92626.28
2022-10-20T13:08:24.705Z,92630.41
2022-10-20T13:11:40.451Z,92624.88
2022-10-20T13:14:47.705Z,92623.50
2022-10-20T13:17:29.375Z,92625.66
2022-10-20T13:20:17.539Z,92631.25
2022-10-20T13:22:52.489Z,92625.19
2022-10-20T13:25:47.630Z,92621.31
2022-10-20T13:28:23.330Z,92624.19
2022-10-20T13:31:07.356Z,92627.22
2022-10-20T13:34:05.326Z,92621.75
2022-10-20T13:36:49.755Z,92620.00
2022-10-20T13:39:29.226Z,92619.47
2022-10-20T13:42:16.267Z,92614.94
2022-10-20T13:45:03.082Z,92624.41
2022-10-20T13:47:51.266Z,92611.44
2022-10-20T13:50:27.970Z,92625.03
2022-10-20T13:53:04.903Z,92628.09
2022-10-20T13:55:57.099Z,92623.94
2022-10-20T13:58:29.658Z,92628.94
2022-10-20T14:01:05.816Z,92625.50
2022-10-20T14:03:42.100Z,92627.53
2022-10-20T14:06:35.047Z,92634.06
2022-10-20T14:09:15.319Z,92623.69
2022-10-20T14:11:50.125Z,92623.38
2022-10-20T14:14:25.022Z,92622.91
2022-10-20T14:17:00.375Z,92623.69
2022-10-20T14:19:33.844Z,92621.66
2022-10-20T14:22:17.662Z,92630.84
2022-10-20T14:24:52.101Z,92629.78
2022-10-20T14:27:27.779Z,92623.28
2022-10-20T14:30:04.165Z,92624.97
2022-10-20T14:32:39.981Z,92622.78
2022-10-20T14:35:21.341Z,92619.28
2022-10-20T14:37:58.132Z,92628.25
2022-10-20T14:40:32.491Z,92620.53
2022-10-20T14:43:07.315Z,92624.72
2022-10-20T14:45:39.610Z,92628.91
2022-10-20T14:48:16.305Z,92625.50
2022-10-20T14:50:49.247Z,92619.19
2022-10-20T14:53:30.927Z,92625.69
2022-10-20T14:56:22.926Z,92623.69
2022-10-20T14:58:58.051Z,92628.00
2022-10-20T15:01:31.733Z,92625.84
2022-10-20T15:06:44.949Z,92628.44
2022-10-20T15:09:23.009Z,92620.56
2022-10-20T15:11:55.429Z,92626.31
2022-10-20T15:14:27.855Z,92627.22
2022-10-20T15:17:00.407Z,92633.22
2022-10-20T15:19:36.552Z,92633.03
2022-10-20T15:22:10.636Z,92642.75
2022-10-20T15:24:43.962Z,92641.00
2022-10-20T15:27:17.716Z,92638.72
2022-10-20T15:29:51.496Z,92646.56
2022-10-20T15:32:24.066Z,92641.78
2022-10-20T15:34:57.069Z,92642.06
2022-10-20T15:37:29.411Z,92637.31
2022-10-20T15:40:01.943Z,92640.69
2022-10-20T15:42:34.489Z,92651.72
2022-10-20T15:45:15.033Z,92650.34
2022-10-20T15:47:47.884Z,92652.16
2022-10-20T15:50:22.950Z,92658.50
2022-10-20T15:52:57.279Z,92658.63
2022-10-20T15:55:32.966Z,92659.09
2022-10-20T15:58:05.334Z,92661.84
2022-10-20T16:00:37.803Z,92664.13
2022-10-20T16:03:15.765Z,92670.53
2022-10-20T16:05:48.820Z,92676.66
2022-10-20T16:08:21.127Z,92674.00
2022-10-20T16:10:54.274Z,92683.19
2022-10-20T16:13:26.639Z,92679.44
2022-10-20T16:15:58.988Z,92677.91
2022-10-20T16:18:31.361Z,92688.59
2022-10-20T16:21:05.799Z,92686.88
2022-10-20T16:23:42.208Z,92690.59
2022-10-20T16:26:16.332Z,92696.69
2022-10-20T16:28:48.690Z,92698.19
2022-10-20T16:31:21.016Z,92698.00
2022-10-20T16:33:53.313Z,92695.50
2022-10-20T16:36:26.318Z,92705.00
2022-10-20T16:39:00.102Z,92702.78
2022-10-20T16:41:32.451Z,92703.66
2022-10-20T16:44:06.316Z,92705.81
2022-10-20T16:46:38.623Z,92706.22
2022-10-20T16:49:11.669Z,92706.41
2022-10-20T16:51:44.673Z,92716.31
2022-10-20T16:54:17.193Z,92717.97
2022-10-20T16:56:49.562Z,92719.31
2022-10-20T16:59:22.113Z,92719.59
2022-10-20T17:01:54.627Z,92722.03
2022-10-20T17:04:27.688Z,92720.56
2022-10-20T17:07:00.686Z,92728.22
2022-10-20T17:09:33.065Z,92727.56
2022-10-20T17:12:05.847Z,92737.84
2022-10-20T17:14:39.902Z,92735.78
2022-10-20T17:17:12.257Z,92734.69
2022-10-20T17:19:44.551Z,92731.81
2022-10-20T17:22:17.536Z,92739.66
2022-10-20T17:24:49.864Z,92737.97
2022-10-20T17:27:22.219Z,92735.16
2022-10-20T17:29:54.529Z,92739.31
2022-10-20T17:32:26.934Z,92743.28
2022-10-20T17:34:59.262Z,92740.94
2022-10-20T17:37:32.298Z,92748.03
2022-10-20T17:40:06.309Z,92751.97
2022-10-20T17:42:38.933Z,92750.25
2022-10-20T17:45:11.597Z,92757.00
2022-10-20T17:47:43.941Z,92752.06
2022-10-20T17:50:16.332Z,92755.53
2022-10-20T17:52:49.335Z,92751.34
2022-10-20T17:55:21.755Z,92756.88
2022-10-20T17:57:54.159Z,92753.50
2022-10-20T18:00:51.211Z,92751.81
2022-10-20T18:03:18.710Z,92754.03
2022-10-20T18:05:51.077Z,92752.78
2022-10-20T18:08:24.044Z,92757.50
2022-10-20T18:10:56.349Z,92756.72
2022-10-20T18:13:28.718Z,92748.13
2022-10-20T18:16:04.207Z,92756.50
2022-10-20T18:18:37.367Z,92755.31
2022-10-20T18:21:11.926Z,92754.47
2022-10-20T18:23:47.422Z,92756.06
2022-10-20T18:26:20.499Z,92753.72
2022-10-20T18:28:52.849Z,92753.56
2022-10-20T18:31:26.853Z,92759.19
2022-10-20T18:34:04.140Z,92756.47
2022-10-20T18:36:42.005Z,92753.13
2022-10-20T18:39:19.114Z,92760.22
2022-10-20T18:41:53.747Z,92756.50
2022-10-20T18:44:26.977Z,92758.19
2022-10-20T18:46:59.724Z,92756.03
2022-10-20T18:49:32.009Z,92760.22
2022-10-20T18:52:04.336Z,92760.31
2022-10-20T18:54:38.789Z,92759.56
2022-10-20T18:57:11.063Z,92753.03
2022-10-20T18:59:43.372Z,92758.03
2022-10-20T19:02:15.691Z,92758.28
2022-10-20T19:04:48.021Z,92757.13
2022-10-20T19:07:20.363Z,92763.34
2022-10-20T19:09:55.504Z,92772.53
2022-10-20T19:12:28.016Z,92762.00
2022-10-20T19:15:00.349Z,92767.19
2022-10-20T19:17:32.728Z,92759.69
2022-10-20T19:20:05.727Z,92770.91
2022-10-20T19:22:38.755Z,92778.47
2022-10-20T19:25:11.876Z,92773.56
2022-10-20T19:27:44.133Z,92777.25
2022-10-20T19:30:16.536Z,92781.44
2022-10-20T19:32:51.536Z,92785.38
2022-10-20T19:35:24.340Z,92783.84
2022-10-20T19:37:56.730Z,92770.38
2022-10-20T19:40:29.676Z,92789.84
2022-10-20T19:43:02.042Z,92786.81
2022-10-20T19:45:34.351Z,92785.25
2022-10-20T19:48:06.715Z,92793.91
2022-10-20T19:50:39.035Z,92800.13
2022-10-20T19:53:11.952Z,92798.56
2022-10-20T19:55:52.995Z,92801.19
2022-10-20T19:58:25.355Z,92801.25
2022-10-20T20:00:59.006Z,92799.66
2022-10-20T20:03:31.567Z,92799.41
2022-10-20T20:06:06.259Z,92795.00
2022-10-20T20:08:38.615Z,92798.44
2022-10-20T20:11:22.114Z,92792.97
2022-10-20T20:13:57.899Z,92793.22
2022-10-20T20:16:30.622Z,92797.69
2022-10-20T20:19:03.375Z,92794.78
2022-10-20T20:21:35.801Z,92801.06
2022-10-20T20:24:10.894Z,92803.41
2022-10-20T20:26:44.203Z,92801.06
2022-10-20T20:29:16.563Z,92802.63
2022-10-20T20:31:49.503Z,92804.47
2022-10-20T20:34:21.790Z,92802.91
2022-10-20T20:36:54.174Z,92800.31
2022-10-20T20:39:26.490Z,92803.97
2022-10-20T20:41:59.412Z,92800.06
2022-10-20T20:44:31.709Z,92806.03
2022-10-20T20:47:04.354Z,92794.09
2022-10-20T20:49:36.682Z,92800.84
2022-10-20T20:52:08.987Z,92800.84
2022-10-20T20:54:41.314Z,92810.22
2022-10-20T20:57:14.402Z,92807.09
2022-10-20T20:59:46.751Z,92811.50
2022-10-20T21:02:19.099Z,92807.34
2022-10-20T21:04:51.450Z,92807.06
2022-10-20T21:07:23.724Z,92811.47
2022-10-20T21:09:56.028Z,92819.56
2022-10-20T21:12:30.612Z,92821.09
2022-10-20T21:15:06.710Z,92818.72
2022-10-20T21:17:39.003Z,92820.28
2022-10-20T21:20:11.351Z,92818.72
2022-10-20T21:22:43.631Z,92813.75
2022-10-20T21:25:16.077Z,92814.25
2022-10-20T21:27:49.046Z,92807.00
2022-10-20T21:30:21.369Z,92812.19
2022-10-20T21:32:53.754Z,92814.00
2022-10-20T21:35:26.199Z,92806.94
2022-10-20T21:37:58.523Z,92811.59
2022-10-20T21:40:31.576Z,92810.56
2022-10-20T21:43:08.103Z,92804.84
2022-10-20T21:45:40.426Z,92811.31
2022-10-20T21:48:12.717Z,92815.44
2022-10-20T21:50:45.050Z,92816.75
2022-10-20T21:53:17.325Z,92823.97
2022-10-20T21:55:49.626Z,92819.53
2022-10-20T21:58:22.539Z,92824.72
2022-10-20T22:00:56.203Z,92830.41
2022-10-20T22:03:28.652Z,92837.09
2022-10-20T22:06:01.864Z,92840.44
2022-10-20T22:08:35.309Z,92844.09
2022-10-20T22:11:10.616Z,92847.44
2022-10-20T22:13:43.962Z,92840.41
2022-10-20T22:16:19.315Z,92846.31
2022-10-20T22:18:54.918Z,92849.44
2022-10-20T22:21:28.673Z,92843.69
2022-10-20T22:24:00.984Z,92840.59
2022-10-20T22:26:33.852Z,92843.38
2022-10-20T22:29:08.808Z,92844.09
2022-10-20T22:31:41.498Z,92853.59
2022-10-20T22:34:14.014Z,92851.47
2022-10-20T22:36:46.391Z,92852.75
2022-10-20T22:39:18.914Z,92843.34
2022-10-20T22:41:51.310Z,92845.16
2022-10-20T22:44:24.301Z,92849.31
2022-10-20T22:46:56.603Z,92846.19
2022-10-20T22:49:28.970Z,92842.56
2022-10-20T22:52:01.292Z,92839.88
2022-10-20T22:54:33.631Z,92838.56
2022-10-20T22:57:05.966Z,92833.63
2022-10-20T22:59:38.993Z,92831.44
2022-10-20T23:02:11.323Z,92833.75
2022-10-20T23:04:43.605Z,92830.34
2022-10-20T23:07:15.902Z,92839.41
2022-10-20T23:09:48.258Z,92834.38
2022-10-20T23:12:20.598Z,92839.81
2022-10-20T23:14:53.564Z,92846.00
2022-10-20T23:17:26.014Z,92839.50
2022-10-20T23:19:58.420Z,92834.50
2022-10-20T23:22:30.751Z,92843.31
2022-10-20T23:25:03.703Z,92845.19
2022-10-20T23:27:36.542Z,92841.81
2022-10-20T23:30:10.529Z,92844.88
2022-10-20T23:32:42.860Z,92850.00
2022-10-20T23:35:15.307Z,92845.53
2022-10-20T23:37:47.630Z,92848.88
2022-10-20T23:40:19.958Z,92847.47
2022-10-20T23:42:52.329Z,92849.47
2022-10-20T23:45:25.365Z,92853.38
2022-10-20T23:47:57.738Z,92847.41
2022-10-20T23:50:30.298Z,92846.03
2022-10-20T23:53:02.632Z,92845.03
2022-10-20T23:55:34.999Z,92844.53
2022-10-20T23:58:07.334Z,92838.34
